sensor_id;sensor_type;location;lat;lon;timestamp;pressure;altitude;pressure_sealevel;temperature;humidity
62952;BME280;52163;52.212;-1.002;2023-03-01T00:01:27;102296.29;;;4.88;95.34
62952;BME280;52163;52.212;-1.002;2023-03-01T00:03:54;102293.65;;;4.88;95.41
62952;BME280;52163;52.212;-1.002;2023-03-01T00:06:20;102294.03;;;4.85;95.22
62952;BME280;52163;52.212;-1.002;2023-03-01T00:08:46;102297.56;;;4.82;95.36
62952;BME280;52163;52.212;-1.002;2023-03-01T00:13:37;102300.56;;;4.77;95.79
62952;BME280;52163;52.212;-1.002;2023-03-01T00:16:11;102297.60;;;4.75;95.86
62952;BME280;52163;52.212;-1.002;2023-03-01T00:18:38;102296.73;;;4.75;96.02
62952;BME280;52163;52.212;-1.002;2023-03-01T00:21:04;102300.93;;;4.76;96.76
62952;BME280;52163;52.212;-1.002;2023-03-01T00:23:31;102300.21;;;4.77;96.45
62952;BME280;52163;52.212;-1.002;2023-03-01T00:25:57;102300.39;;;4.77;96.56
62952;BME280;52163;52.212;-1.002;2023-03-01T00:28:22;102301.98;;;4.74;96.50
62952;BME280;52163;52.212;-1.002;2023-03-01T00:30:48;102298.52;;;4.70;96.36
62952;BME280;52163;52.212;-1.002;2023-03-01T00:33:13;102301.51;;;4.67;96.61
62952;BME280;52163;52.212;-1.002;2023-03-01T00:35:39;102303.11;;;4.65;96.89
62952;BME280;52163;52.212;-1.002;2023-03-01T00:38:04;102304.16;;;4.64;97.06
62952;BME280;52163;52.212;-1.002;2023-03-01T00:40:32;102304.86;;;4.65;97.07
62952;BME280;52163;52.212;-1.002;2023-03-01T00:42:58;102303.65;;;4.63;96.82
62952;BME280;52163;52.212;-1.002;2023-03-01T00:45:24;102300.33;;;4.62;97.06
62952;BME280;52163;52.212;-1.002;2023-03-01T00:47:50;102307.52;;;4.61;96.84
62952;BME280;52163;52.212;-1.002;2023-03-01T00:50:17;102307.01;;;4.59;96.91
62952;BME280;52163;52.212;-1.002;2023-03-01T00:52:43;102296.85;;;4.59;96.93
62952;BME280;52163;52.212;-1.002;2023-03-01T00:55:10;102294.58;;;4.60;96.99
62952;BME280;52163;52.212;-1.002;2023-03-01T00:57:36;102292.29;;;4.60;96.92
62952;BME280;52163;52.212;-1.002;2023-03-01T01:00:01;102286.86;;;4.61;97.33
62952;BME280;52163;52.212;-1.002;2023-03-01T01:02:28;102289.64;;;4.63;97.09
62952;BME280;52163;52.212;-1.002;2023-03-01T01:04:53;102290.35;;;4.63;97.24
62952;BME280;52163;52.212;-1.002;2023-03-01T01:07:18;102289.67;;;4.61;96.74
62952;BME280;52163;52.212;-1.002;2023-03-01T01:09:46;102290.20;;;4.57;96.87
62952;BME280;52163;52.212;-1.002;2023-03-01T01:12:11;102287.77;;;4.55;96.98
62952;BME280;52163;52.212;-1.002;2023-03-01T01:14:36;102287.59;;;4.55;97.15
62952;BME280;52163;52.212;-1.002;2023-03-01T01:17:02;102284.60;;;4.58;97.26
62952;BME280;52163;52.212;-1.002;2023-03-01T01:19:27;102284.59;;;4.59;97.28
62952;BME280;52163;52.212;-1.002;2023-03-01T01:21:53;102278.11;;;4.60;97.21
62952;BME280;52163;52.212;-1.002;2023-03-01T01:24:19;102276.17;;;4.63;97.62
62952;BME280;52163;52.212;-1.002;2023-03-01T01:26:48;102273.87;;;4.65;97.30
62952;BME280;52163;52.212;-1.002;2023-03-01T01:29:14;102274.73;;;4.65;97.35
62952;BME280;52163;52.212;-1.002;2023-03-01T01:31:40;102270.39;;;4.63;97.21
62952;BME280;52163;52.212;-1.002;2023-03-01T01:34:09;102268.11;;;4.63;97.28
62952;BME280;52163;52.212;-1.002;2023-03-01T01:36:37;102268.11;;;4.63;97.27
62952;BME280;52163;52.212;-1.002;2023-03-01T01:39:03;102266.54;;;4.63;97.49
62952;BME280;52163;52.212;-1.002;2023-03-01T01:41:29;102260.91;;;4.65;97.47
62952;BME280;52163;52.212;-1.002;2023-03-01T01:49:23;102258.95;;;4.70;97.76
62952;BME280;52163;52.212;-1.002;2023-03-01T01:52:00;102253.70;;;4.70;97.50
62952;BME280;52163;52.212;-1.002;2023-03-01T01:54:50;102252.31;;;4.69;97.22
62952;BME280;52163;52.212;-1.002;2023-03-01T01:57:43;102249.67;;;4.70;97.46
62952;BME280;52163;52.212;-1.002;2023-03-01T02:02:39;102239.66;;;4.73;97.78
62952;BME280;52163;52.212;-1.002;2023-03-01T02:05:12;102237.73;;;4.74;97.63
62952;BME280;52163;52.212;-1.002;2023-03-01T02:07:41;102232.83;;;4.75;97.47
62952;BME280;52163;52.212;-1.002;2023-03-01T02:10:08;102230.73;;;4.74;97.34
62952;BME280;52163;52.212;-1.002;2023-03-01T02:12:35;102229.70;;;4.73;97.35
62952;BME280;52163;52.212;-1.002;2023-03-01T02:15:01;102222.73;;;4.69;97.32
62952;BME280;52163;52.212;-1.002;2023-03-01T02:17:27;102226.41;;;4.67;97.49
62952;BME280;52163;52.212;-1.002;2023-03-01T02:22:33;102227.65;;;4.67;97.94
62952;BME280;52163;52.212;-1.002;2023-03-01T02:25:06;102226.59;;;4.69;98.31
62952;BME280;52163;52.212;-1.002;2023-03-01T02:27:40;102227.80;;;4.71;98.34
62952;BME280;52163;52.212;-1.002;2023-03-01T02:30:10;102228.84;;;4.71;98.37
62952;BME280;52163;52.212;-1.002;2023-03-01T02:32:39;102225.34;;;4.71;98.65
62952;BME280;52163;52.212;-1.002;2023-03-01T02:35:12;102220.96;;;4.70;98.64
62952;BME280;52163;52.212;-1.002;2023-03-01T02:37:40;102216.77;;;4.69;98.56
62952;BME280;52163;52.212;-1.002;2023-03-01T02:40:10;102213.27;;;4.69;98.63
62952;BME280;52163;52.212;-1.002;2023-03-01T02:42:46;102216.27;;;4.69;98.87
62952;BME280;52163;52.212;-1.002;2023-03-01T02:45:13;102216.95;;;4.68;99.04
62952;BME280;52163;52.212;-1.002;2023-03-01T02:47:38;102212.91;;;4.70;99.47
62952;BME280;52163;52.212;-1.002;2023-03-01T02:50:15;102211.67;;;4.71;99.80
62952;BME280;52163;52.212;-1.002;2023-03-01T02:53:00;102209.21;;;4.72;99.96
62952;BME280;52163;52.212;-1.002;2023-03-01T02:55:27;102206.45;;;4.68;100.00
62952;BME280;52163;52.212;-1.002;2023-03-01T02:57:53;102201.02;;;4.67;100.00
62952;BME280;52163;52.212;-1.002;2023-03-01T03:00:40;102198.95;;;4.64;100.00
62952;BME280;52163;52.212;-1.002;2023-03-01T03:03:13;102196.16;;;4.63;100.00
62952;BME280;52163;52.212;-1.002;2023-03-01T03:05:40;102194.94;;;4.64;100.00
62952;BME280;52163;52.212;-1.002;2023-03-01T03:08:05;102187.91;;;4.66;100.00
62952;BME280;52163;52.212;-1.002;2023-03-01T03:10:35;102184.55;;;4.70;100.00
62952;BME280;52163;52.212;-1.002;2023-03-01T03:13:04;102180.34;;;4.71;100.00
62952;BME280;52163;52.212;-1.002;2023-03-01T03:15:30;102172.46;;;4.70;100.00
62952;BME280;52163;52.212;-1.002;2023-03-01T03:17:57;102171.60;;;4.70;100.00
62952;BME280;52163;52.212;-1.002;2023-03-01T03:20:25;102168.99;;;4.68;100.00
62952;BME280;52163;52.212;-1.002;2023-03-01T03:22:53;102163.80;;;4.61;100.00
62952;BME280;52163;52.212;-1.002;2023-03-01T03:25:20;102160.70;;;4.55;100.00
62952;BME280;52163;52.212;-1.002;2023-03-01T03:27:48;102155.48;;;4.51;100.00
62952;BME280;52163;52.212;-1.002;2023-03-01T03:30:16;102151.84;;;4.47;100.00
62952;BME280;52163;52.212;-1.002;2023-03-01T03:32:43;102146.63;;;4.43;100.00
62952;BME280;52163;52.212;-1.002;2023-03-01T03:35:22;102144.55;;;4.40;100.00
62952;BME280;52163;52.212;-1.002;2023-03-01T03:37:50;102142.85;;;4.35;100.00
62952;BME280;52163;52.212;-1.002;2023-03-01T03:40:59;102142.85;;;4.32;100.00
62952;BME280;52163;52.212;-1.002;2023-03-01T03:43:30;102143.20;;;4.32;100.00
62952;BME280;52163;52.212;-1.002;2023-03-01T03:45:56;102140.42;;;4.32;100.00
62952;BME280;52163;52.212;-1.002;2023-03-01T03:48:23;102141.27;;;4.35;100.00
62952;BME280;52163;52.212;-1.002;2023-03-01T03:50:51;102135.46;;;4.38;100.00
62952;BME280;52163;52.212;-1.002;2023-03-01T03:53:18;102135.98;;;4.40;100.00
62952;BME280;52163;52.212;-1.002;2023-03-01T03:55:43;102134.93;;;4.39;100.00
62952;BME280;52163;52.212;-1.002;2023-03-01T03:58:10;102133.54;;;4.39;100.00
62952;BME280;52163;52.212;-1.002;2023-03-01T04:00:44;102134.09;;;4.36;100.00
62952;BME280;52163;52.212;-1.002;2023-03-01T04:03:11;102136.36;;;4.35;100.00
62952;BME280;52163;52.212;-1.002;2023-03-01T04:05:38;102141.45;;;4.33;100.00
62952;BME280;52163;52.212;-1.002;2023-03-01T04:08:04;102141.64;;;4.32;100.00
62952;BME280;52163;52.212;-1.002;2023-03-01T04:10:41;102144.62;;;4.31;100.00
62952;BME280;52163;52.212;-1.002;2023-03-01T04:13:10;102140.05;;;4.33;100.00
62952;BME280;52163;52.212;-1.002;2023-03-01T04:15:36;102142.48;;;4.35;100.00
62952;BME280;52163;52.212;-1.002;2023-03-01T04:18:03;102144.93;;;4.36;100.00
62952;BME280;52163;52.212;-1.002;2023-03-01T04:20:31;102140.04;;;4.36;100.00
62952;BME280;52163;52.212;-1.002;2023-03-01T04:22:59;102134.80;;;4.33;100.00
62952;BME280;52163;52.212;-1.002;2023-03-01T04:25:40;102129.39;;;4.31;100.00
62952;BME280;52163;52.212;-1.002;2023-03-01T04:28:07;102127.33;;;4.28;100.00
62952;BME280;52163;52.212;-1.002;2023-03-01T04:30:35;102126.45;;;4.28;100.00
62952;BME280;52163;52.212;-1.002;2023-03-01T04:33:07;102126.64;;;4.27;100.00
62952;BME280;52163;52.212;-1.002;2023-03-01T04:35:34;102124.92;;;4.22;100.00
62952;BME280;52163;52.212;-1.002;2023-03-01T04:37:59;102125.48;;;4.18;100.00
62952;BME280;52163;52.212;-1.002;2023-03-01T04:40:25;102129.02;;;4.13;100.00
62952;BME280;52163;52.212;-1.002;2023-03-01T04:42:50;102128.34;;;4.09;100.00
62952;BME280;52163;52.212;-1.002;2023-03-01T04:45:16;102121.70;;;4.07;100.00
62952;BME280;52163;52.212;-1.002;2023-03-01T04:47:43;102120.32;;;4.05;100.00
62952;BME280;52163;52.212;-1.002;2023-03-01T04:50:13;102119.63;;;4.06;100.00
62952;BME280;52163;52.212;-1.002;2023-03-01T04:52:39;102118.73;;;4.06;100.00
62952;BME280;52163;52.212;-1.002;2023-03-01T04:55:06;102116.63;;;4.08;100.00
62952;BME280;52163;52.212;-1.002;2023-03-01T04:57:31;102116.11;;;4.08;100.00
62952;BME280;52163;52.212;-1.002;2023-03-01T04:59:57;102110.02;;;4.05;100.00
62952;BME280;52163;52.212;-1.002;2023-03-01T05:02:22;102108.81;;;4.03;100.00
62952;BME280;52163;52.212;-1.002;2023-03-01T05:04:48;102113.38;;;3.99;100.00
62952;BME280;52163;52.212;-1.002;2023-03-01T05:07:14;102113.02;;;3.99;100.00
62952;BME280;52163;52.212;-1.002;2023-03-01T05:09:47;102114.07;;;4.00;100.00
62952;BME280;52163;52.212;-1.002;2023-03-01T05:12:14;102107.75;;;4.03;100.00
62952;BME280;52163;52.212;-1.002;2023-03-01T05:14:40;102108.44;;;4.06;100.00
62952;BME280;52163;52.212;-1.002;2023-03-01T05:17:06;102098.64;;;4.05;100.00
62952;BME280;52163;52.212;-1.002;2023-03-01T05:19:32;102098.66;;;4.02;100.00
62952;BME280;52163;52.212;-1.002;2023-03-01T05:21:58;102093.45;;;3.97;99.99
62952;BME280;52163;52.212;-1.002;2023-03-01T05:24:27;102090.35;;;3.93;100.00
62952;BME280;52163;52.212;-1.002;2023-03-01T05:26:53;102090.54;;;3.90;100.00
62952;BME280;52163;52.212;-1.002;2023-03-01T05:29:20;102093.02;;;3.87;100.00
62952;BME280;52163;52.212;-1.002;2023-03-01T05:31:58;102090.23;;;3.86;100.00
62952;BME280;52163;52.212;-1.002;2023-03-01T05:34:25;102088.65;;;3.86;100.00
62952;BME280;52163;52.212;-1.002;2023-03-01T05:36:52;102086.88;;;3.88;100.00
62952;BME280;52163;52.212;-1.002;2023-03-01T05:39:22;102089.84;;;3.91;100.00
62952;BME280;52163;52.212;-1.002;2023-03-01T05:41:55;102086.85;;;3.93;100.00
62952;BME280;52163;52.212;-1.002;2023-03-01T05:44:21;102085.63;;;3.94;100.00
62952;BME280;52163;52.212;-1.002;2023-03-01T05:46:47;102081.43;;;3.94;100.00
62952;BME280;52163;52.212;-1.002;2023-03-01T05:49:13;102084.39;;;3.94;100.00
62952;BME280;52163;52.212;-1.002;2023-03-01T05:51:40;102085.41;;;3.96;100.00
62952;BME280;52163;52.212;-1.002;2023-03-01T05:54:07;102085.05;;;3.99;100.00
62952;BME280;52163;52.212;-1.002;2023-03-01T05:56:34;102084.52;;;4.01;100.00
62952;BME280;52163;52.212;-1.002;2023-03-01T05:59:00;102083.64;;;4.01;100.00
62952;BME280;52163;52.212;-1.002;2023-03-01T06:01:26;102080.14;;;4.01;100.00
62952;BME280;52163;52.212;-1.002;2023-03-01T06:03:52;102081.71;;;4.00;100.00
62952;BME280;52163;52.212;-1.002;2023-03-01T06:06:17;102082.08;;;4.00;100.00
62952;BME280;52163;52.212;-1.002;2023-03-01T06:08:43;102085.23;;;3.98;100.00
62952;BME280;52163;52.212;-1.002;2023-03-01T06:11:09;102085.40;;;4.00;100.00
62952;BME280;52163;52.212;-1.002;2023-03-01T06:13:35;102086.59;;;4.03;100.00
62952;BME280;52163;52.212;-1.002;2023-03-01T06:16:01;102084.64;;;4.07;100.00
62952;BME280;52163;52.212;-1.002;2023-03-01T06:18:28;102085.66;;;4.10;100.00
62952;BME280;52163;52.212;-1.002;2023-03-01T06:20:55;102091.95;;;4.13;100.00
62952;BME280;52163;52.212;-1.002;2023-03-01T06:23:21;102092.48;;;4.12;100.00
62952;BME280;52163;52.212;-1.002;2023-03-01T06:25:47;102089.52;;;4.11;100.00
62952;BME280;52163;52.212;-1.002;2023-03-01T06:28:12;102089.52;;;4.09;100.00
62952;BME280;52163;52.212;-1.002;2023-03-01T06:30:37;102095.32;;;4.05;100.00
62952;BME280;52163;52.212;-1.002;2023-03-01T06:33:03;102100.23;;;4.03;100.00
62952;BME280;52163;52.212;-1.002;2023-03-01T06:35:29;102095.02;;;4.01;100.00
62952;BME280;52163;52.212;-1.002;2023-03-01T06:37:57;102096.94;;;4.00;100.00
62952;BME280;52163;52.212;-1.002;2023-03-01T06:40:23;102098.52;;;4.00;100.00
62952;BME280;52163;52.212;-1.002;2023-03-01T06:42:49;102099.91;;;3.99;100.00
62952;BME280;52163;52.212;-1.002;2023-03-01T06:45:16;102099.02;;;3.99;100.00
62952;BME280;52163;52.212;-1.002;2023-03-01T06:47:42;102099.03;;;4.00;100.00
62952;BME280;52163;52.212;-1.002;2023-03-01T06:50:08;102101.47;;;4.02;100.00
62952;BME280;52163;52.212;-1.002;2023-03-01T06:52:34;102101.80;;;4.04;100.00
62952;BME280;52163;52.212;-1.002;2023-03-01T06:54:59;102102.13;;;4.06;100.00
62952;BME280;52163;52.212;-1.002;2023-03-01T06:57:25;102103.17;;;4.07;100.00
62952;BME280;52163;52.212;-1.002;2023-03-01T06:59:51;102098.63;;;4.06;100.00
62952;BME280;52163;52.212;-1.002;2023-03-01T07:02:16;102100.21;;;4.05;100.00
62952;BME280;52163;52.212;-1.002;2023-03-01T07:04:42;102104.22;;;4.06;100.00
62952;BME280;52163;52.212;-1.002;2023-03-01T07:07:08;102105.44;;;4.09;100.00
62952;BME280;52163;52.212;-1.002;2023-03-01T07:09:33;102105.43;;;4.11;100.00
62952;BME280;52163;52.212;-1.002;2023-03-01T07:11:59;102108.56;;;4.14;100.00
62952;BME280;52163;52.212;-1.002;2023-03-01T07:14:25;102110.63;;;4.17;100.00
62952;BME280;52163;52.212;-1.002;2023-03-01T07:16:52;102111.65;;;4.20;100.00
62952;BME280;52163;52.212;-1.002;2023-03-01T07:19:17;102110.41;;;4.22;100.00
62952;BME280;52163;52.212;-1.002;2023-03-01T07:21:43;102105.86;;;4.24;100.00
62952;BME280;52163;52.212;-1.002;2023-03-01T07:24:08;102104.25;;;4.27;100.00
62952;BME280;52163;52.212;-1.002;2023-03-01T07:26:34;102099.64;;;4.32;100.00
62952;BME280;52163;52.212;-1.002;2023-03-01T07:29:01;102101.00;;;4.38;100.00
62952;BME280;52163;52.212;-1.002;2023-03-01T07:31:27;102095.33;;;4.45;100.00
62952;BME280;52163;52.212;-1.002;2023-03-01T07:33:55;102093.17;;;4.52;100.00
62952;BME280;52163;52.212;-1.002;2023-03-01T07:36:21;102088.91;;;4.57;100.00
62952;BME280;52163;52.212;-1.002;2023-03-01T07:38:47;102089.95;;;4.58;100.00
62952;BME280;52163;52.212;-1.002;2023-03-01T07:41:12;102090.33;;;4.55;100.00
62952;BME280;52163;52.212;-1.002;2023-03-01T07:43:38;102087.55;;;4.53;100.00
62952;BME280;52163;52.212;-1.002;2023-03-01T07:46:04;102094.58;;;4.51;100.00
62952;BME280;52163;52.212;-1.002;2023-03-01T07:48:31;102101.56;;;4.52;100.00
62952;BME280;52163;52.212;-1.002;2023-03-01T07:51:01;102102.05;;;4.55;100.00
62952;BME280;52163;52.212;-1.002;2023-03-01T07:53:27;102100.61;;;4.61;100.00
62952;BME280;52163;52.212;-1.002;2023-03-01T07:56:11;102098.44;;;4.69;100.00
62952;BME280;52163;52.212;-1.002;2023-03-01T07:58:39;102098.72;;;4.74;100.00
62952;BME280;52163;52.212;-1.002;2023-03-01T08:01:08;102099.23;;;4.76;100.00
62952;BME280;52163;52.212;-1.002;2023-03-01T08:03:34;102104.44;;;4.80;100.00
62952;BME280;52163;52.212;-1.002;2023-03-01T08:06:01;102103.67;;;4.86;100.00
62952;BME280;52163;52.212;-1.002;2023-03-01T08:08:27;102104.80;;;4.95;100.00
62952;BME280;52163;52.212;-1.002;2023-03-01T08:10:56;102104.87;;;5.04;100.00
62952;BME280;52163;52.212;-1.002;2023-03-01T08:13:22;102100.05;;;5.12;100.00
62952;BME280;52163;52.212;-1.002;2023-03-01T08:15:48;102106.63;;;5.18;100.00
62952;BME280;52163;52.212;-1.002;2023-03-01T08:18:15;102107.65;;;5.20;99.98
62952;BME280;52163;52.212;-1.002;2023-03-01T08:20:40;102108.70;;;5.21;99.96
62952;BME280;52163;52.212;-1.002;2023-03-01T08:23:06;102107.95;;;5.25;100.00
62952;BME280;52163;52.212;-1.002;2023-03-01T08:25:31;102101.76;;;5.30;99.99
62952;BME280;52163;52.212;-1.002;2023-03-01T08:27:56;102098.36;;;5.34;99.93
62952;BME280;52163;52.212;-1.002;2023-03-01T08:30:22;102102.84;;;5.41;99.95
62952;BME280;52163;52.212;-1.002;2023-03-01T08:32:49;102098.13;;;5.51;99.98
62952;BME280;52163;52.212;-1.002;2023-03-01T08:35:15;102105.91;;;5.60;99.93
62952;BME280;52163;52.212;-1.002;2023-03-01T08:37:41;102100.58;;;5.65;99.82
62952;BME280;52163;52.212;-1.002;2023-03-01T08:40:07;102106.15;;;5.67;99.45
62952;BME280;52163;52.212;-1.002;2023-03-01T08:42:36;102098.13;;;5.65;98.95
62952;BME280;52163;52.212;-1.002;2023-03-01T08:45:02;102096.98;;;5.70;98.75
62952;BME280;52163;52.212;-1.002;2023-03-01T08:47:28;102097.45;;;5.74;98.38
62952;BME280;52163;52.212;-1.002;2023-03-01T08:49:54;102091.77;;;5.80;98.24
62952;BME280;52163;52.212;-1.002;2023-03-01T08:52:20;102091.46;;;5.88;98.09
62952;BME280;52163;52.212;-1.002;2023-03-01T08:54:48;102093.33;;;5.92;97.81
62952;BME280;52163;52.212;-1.002;2023-03-01T08:57:14;102096.16;;;5.90;97.54
62952;BME280;52163;52.212;-1.002;2023-03-01T08:59:39;102097.20;;;5.91;97.07
62952;BME280;52163;52.212;-1.002;2023-03-01T09:02:16;102086.84;;;5.92;96.94
62952;BME280;52163;52.212;-1.002;2023-03-01T09:04:43;102080.34;;;5.93;97.00
62952;BME280;52163;52.212;-1.002;2023-03-01T09:07:09;102084.17;;;5.95;96.60
62952;BME280;52163;52.212;-1.002;2023-03-01T09:09:35;102082.69;;;5.99;96.45
62952;BME280;52163;52.212;-1.002;2023-03-01T09:12:01;102083.39;;;6.03;95.77
62952;BME280;52163;52.212;-1.002;2023-03-01T09:14:27;102079.13;;;6.06;95.41
62952;BME280;52163;52.212;-1.002;2023-03-01T09:16:53;102079.06;;;6.09;95.26
62952;BME280;52163;52.212;-1.002;2023-03-01T09:19:18;102075.71;;;6.10;95.33
62952;BME280;52163;52.212;-1.002;2023-03-01T09:21:43;102071.19;;;6.08;95.13
62952;BME280;52163;52.212;-1.002;2023-03-01T09:24:27;102071.78;;;6.15;95.32
62952;BME280;52163;52.212;-1.002;2023-03-01T09:26:56;102069.17;;;6.23;95.37
62952;BME280;52163;52.212;-1.002;2023-03-01T09:29:22;102073.31;;;6.27;95.40
62952;BME280;52163;52.212;-1.002;2023-03-01T09:31:48;102066.45;;;6.29;95.10
62952;BME280;52163;52.212;-1.002;2023-03-01T09:34:14;102062.22;;;6.30;95.00
62952;BME280;52163;52.212;-1.002;2023-03-01T09:36:41;102060.95;;;6.32;95.10
62952;BME280;52163;52.212;-1.002;2023-03-01T09:39:07;102060.31;;;6.29;94.96
62952;BME280;52163;52.212;-1.002;2023-03-01T09:44:42;102055.99;;;6.34;94.56
62952;BME280;52163;52.212;-1.002;2023-03-01T09:47:18;102049.13;;;6.45;94.42
62952;BME280;52163;52.212;-1.002;2023-03-01T09:49:51;102049.44;;;6.57;94.53
62952;BME280;52163;52.212;-1.002;2023-03-01T09:52:23;102043.32;;;6.64;93.94
62952;BME280;52163;52.212;-1.002;2023-03-01T09:54:52;102046.79;;;6.67;93.71
62952;BME280;52163;52.212;-1.002;2023-03-01T09:57:39;102045.92;;;6.66;93.61
62952;BME280;52163;52.212;-1.002;2023-03-01T10:02:45;102039.86;;;6.62;93.34
62952;BME280;52163;52.212;-1.002;2023-03-01T10:10:43;102016.70;;;6.70;93.62
62952;BME280;52163;52.212;-1.002;2023-03-01T10:13:31;102017.56;;;6.71;93.19
62952;BME280;52163;52.212;-1.002;2023-03-01T10:16:10;102015.24;;;6.73;92.78
62952;BME280;52163;52.212;-1.002;2023-03-01T10:18:37;102012.39;;;6.74;92.64
62952;BME280;52163;52.212;-1.002;2023-03-01T10:21:17;102013.92;;;6.68;92.83
62952;BME280;52163;52.212;-1.002;2023-03-01T10:23:43;102006.73;;;6.59;92.67
62952;BME280;52163;52.212;-1.002;2023-03-01T10:26:22;102009.41;;;6.57;92.72
62952;BME280;52163;52.212;-1.002;2023-03-01T10:29:06;102008.33;;;6.67;92.70
62952;BME280;52163;52.212;-1.002;2023-03-01T10:31:43;102003.32;;;6.80;92.13
62952;BME280;52163;52.212;-1.002;2023-03-01T10:34:18;102004.68;;;6.91;91.62
62952;BME280;52163;52.212;-1.002;2023-03-01T10:36:48;102001.16;;;6.99;91.19
62952;BME280;52163;52.212;-1.002;2023-03-01T10:39:20;102003.98;;;7.15;90.93
62952;BME280;52163;52.212;-1.002;2023-03-01T10:47:26;102000.09;;;7.16;89.66
62952;BME280;52163;52.212;-1.002;2023-03-01T10:52:24;101992.70;;;7.08;89.42
62952;BME280;52163;52.212;-1.002;2023-03-01T10:54:53;101992.05;;;7.07;89.21
62952;BME280;52163;52.212;-1.002;2023-03-01T10:57:34;101988.73;;;7.05;89.19
62952;BME280;52163;52.212;-1.002;2023-03-01T11:00:21;101989.74;;;7.08;89.28
62952;BME280;52163;52.212;-1.002;2023-03-01T11:03:02;101990.90;;;7.03;88.62
62952;BME280;52163;52.212;-1.002;2023-03-01T11:05:29;101983.80;;;6.90;88.55
62952;BME280;52163;52.212;-1.002;2023-03-01T11:07:59;101987.34;;;6.80;89.01
62952;BME280;52163;52.212;-1.002;2023-03-01T11:10:30;101987.29;;;6.73;89.29
62952;BME280;52163;52.212;-1.002;2023-03-01T11:15:33;101983.19;;;6.68;89.73
62952;BME280;52163;52.212;-1.002;2023-03-01T11:17:58;101983.96;;;6.74;89.51
62952;BME280;52163;52.212;-1.002;2023-03-01T11:20:33;101980.13;;;6.81;89.51
62952;BME280;52163;52.212;-1.002;2023-03-01T11:23:11;101977.01;;;6.87;89.28
62952;BME280;52163;52.212;-1.002;2023-03-01T11:25:43;101971.23;;;6.86;90.01
62952;BME280;52163;52.212;-1.002;2023-03-01T11:28:15;101973.71;;;6.85;90.58
62952;BME280;52163;52.212;-1.002;2023-03-01T11:30:53;101970.58;;;6.84;90.69
62952;BME280;52163;52.212;-1.002;2023-03-01T11:39:43;101964.33;;;6.80;91.33
62952;BME280;52163;52.212;-1.002;2023-03-01T11:42:24;101959.20;;;7.14;91.73
62952;BME280;52163;52.212;-1.002;2023-03-01T11:44:55;101958.08;;;7.40;90.59
62952;BME280;52163;52.212;-1.002;2023-03-01T11:50:44;101948.61;;;7.53;89.34
62952;BME280;52163;52.212;-1.002;2023-03-01T11:56:22;101944.87;;;7.55;87.42
62952;BME280;52163;52.212;-1.002;2023-03-01T12:10:23;101909.41;;;8.06;84.79
62952;BME280;52163;52.212;-1.002;2023-03-01T12:13:32;101906.02;;;8.21;84.64
62952;BME280;52163;52.212;-1.002;2023-03-01T12:16:28;101902.30;;;8.21;84.76
62952;BME280;52163;52.212;-1.002;2023-03-01T12:33:30;101873.63;;;7.56;88.26
62952;BME280;52163;52.212;-1.002;2023-03-01T12:35:44;101872.88;;;7.43;88.22
62952;BME280;52163;52.212;-1.002;2023-03-01T12:38:37;101866.77;;;7.35;89.01
62952;BME280;52163;52.212;-1.002;2023-03-01T12:49:18;101849.02;;;7.94;89.01
62952;BME280;52163;52.212;-1.002;2023-03-01T12:51:57;101847.23;;;7.96;88.13
62952;BME280;52163;52.212;-1.002;2023-03-01T12:54:30;101841.23;;;8.03;87.65
62952;BME280;52163;52.212;-1.002;2023-03-01T12:57:11;101840.08;;;8.00;87.18
62952;BME280;52163;52.212;-1.002;2023-03-01T13:02:24;101833.70;;;7.95;87.64
62952;BME280;52163;52.212;-1.002;2023-03-01T13:07:55;101832.23;;;7.78;87.92
62952;BME280;52163;52.212;-1.002;2023-03-01T13:10:46;101827.80;;;7.79;87.83
62952;BME280;52163;52.212;-1.002;2023-03-01T13:13:20;101828.39;;;7.83;87.87
62952;BME280;52163;52.212;-1.002;2023-03-01T13:15:45;101821.06;;;7.94;87.87
62952;BME280;52163;52.212;-1.002;2023-03-01T13:20:49;101813.58;;;7.97;86.89
62952;BME280;52163;52.212;-1.002;2023-03-01T13:26:06;101799.52;;;8.03;86.42
62952;BME280;52163;52.212;-1.002;2023-03-01T13:33:45;101776.03;;;7.87;86.15
62952;BME280;52163;52.212;-1.002;2023-03-01T13:39:03;101768.29;;;8.17;84.99
62952;BME280;52163;52.212;-1.002;2023-03-01T13:46:45;101761.16;;;8.21;83.41
62952;BME280;52163;52.212;-1.002;2023-03-01T13:49:16;101761.44;;;8.11;82.70
62952;BME280;52163;52.212;-1.002;2023-03-01T13:51:47;101761.77;;;8.00;82.24
62952;BME280;52163;52.212;-1.002;2023-03-01T13:54:14;101759.69;;;7.87;82.62
62952;BME280;52163;52.212;-1.002;2023-03-01T13:56:41;101758.25;;;7.76;82.53
62952;BME280;52163;52.212;-1.002;2023-03-01T13:59:14;101760.94;;;7.67;82.98
62952;BME280;52163;52.212;-1.002;2023-03-01T14:01:39;101756.67;;;7.63;83.88
62952;BME280;52163;52.212;-1.002;2023-03-01T14:04:34;101750.88;;;7.62;84.84
62952;BME280;52163;52.212;-1.002;2023-03-01T14:07:18;101752.44;;;7.58;85.46
62952;BME280;52163;52.212;-1.002;2023-03-01T14:09:46;101755.25;;;7.58;85.05
62952;BME280;52163;52.212;-1.002;2023-03-01T14:20:30;101733.58;;;7.83;85.44
62952;BME280;52163;52.212;-1.002;2023-03-01T14:22:59;101729.01;;;7.77;86.15
62952;BME280;52163;52.212;-1.002;2023-03-01T14:25:29;101716.57;;;7.69;86.57
62952;BME280;52163;52.212;-1.002;2023-03-01T14:28:16;101714.20;;;7.66;86.61
62952;BME280;52163;52.212;-1.002;2023-03-01T14:30:49;101709.05;;;7.74;87.03
62952;BME280;52163;52.212;-1.002;2023-03-01T14:35:58;101699.73;;;8.03;86.45
62952;BME280;52163;52.212;-1.002;2023-03-01T14:38:36;101694.91;;;8.11;85.52
62952;BME280;52163;52.212;-1.002;2023-03-01T14:41:12;101695.97;;;8.11;84.91
62952;BME280;52163;52.212;-1.002;2023-03-01T14:43:44;101696.30;;;8.00;84.12
62952;BME280;52163;52.212;-1.002;2023-03-01T14:46:21;101701.68;;;7.91;83.82
62952;BME280;52163;52.212;-1.002;2023-03-01T14:48:55;101702.78;;;7.89;82.85
62952;BME280;52163;52.212;-1.002;2023-03-01T14:51:21;101698.12;;;7.92;82.70
62952;BME280;52163;52.212;-1.002;2023-03-01T14:53:47;101696.41;;;7.97;82.28